Moose, Wyoming
Current Conditions -  °F | °C
As of 11:51 AM on Tuesday 27 Jan 2015 (Local Time) from KJAC Reporting Station
Haze Haze  
Wind Chill: 18°   Ceiling: 200
Heat Index: 18°   Visibility: 0.75mi
Dew Point: 18°   Wind: 0mph
Humidity: 100%   Direction: NA
Pressure: 30.25"   Gusts: NA
Location:  43.66°N, 110.72°W
Report Text: KJAC 271851Z 00000KT 3/4SM BR OVC002 M08/M08 A3025
Loading
Personal Weather Stations






























Interactive Weather Map New forecast layout! Learn more

10-Day Weather Forecast

Advertisements
Track Severe Weather on mobile